sensor_id;sensor_type;location;lat;lon;timestamp;temperature;humidity
7234;DHT22;3658;47.992;10.158;2023-04-24T00:00:03;21.50;43.00
7234;DHT22;3658;47.992;10.158;2023-04-24T00:02:30;21.50;43.00
7234;DHT22;3658;47.992;10.158;2023-04-24T00:04:58;21.50;42.90
7234;DHT22;3658;47.992;10.158;2023-04-24T00:07:29;21.50;42.90
7234;DHT22;3658;47.992;10.158;2023-04-24T00:09:56;21.50;42.90
7234;DHT22;3658;47.992;10.158;2023-04-24T00:12:23;21.50;42.90
7234;DHT22;3658;47.992;10.158;2023-04-24T00:14:50;21.50;42.90
7234;DHT22;3658;47.992;10.158;2023-04-24T00:17:17;21.50;42.90
7234;DHT22;3658;47.992;10.158;2023-04-24T00:19:46;21.50;42.90
7234;DHT22;3658;47.992;10.158;2023-04-24T00:22:13;21.50;42.90
7234;DHT22;3658;47.992;10.158;2023-04-24T00:24:41;21.40;42.70
7234;DHT22;3658;47.992;10.158;2023-04-24T00:27:08;21.50;42.80
7234;DHT22;3658;47.992;10.158;2023-04-24T00:29:35;21.50;42.80
7234;DHT22;3658;47.992;10.158;2023-04-24T00:32:02;21.50;42.80
7234;DHT22;3658;47.992;10.158;2023-04-24T00:34:29;21.50;42.80
7234;DHT22;3658;47.992;10.158;2023-04-24T00:36:57;21.50;42.80
7234;DHT22;3658;47.992;10.158;2023-04-24T00:39:25;21.40;42.70
7234;DHT22;3658;47.992;10.158;2023-04-24T00:41:53;21.50;42.80
7234;DHT22;3658;47.992;10.158;2023-04-24T00:44:20;21.50;42.80
7234;DHT22;3658;47.992;10.158;2023-04-24T00:46:48;21.50;42.80
7234;DHT22;3658;47.992;10.158;2023-04-24T00:49:20;21.50;42.70
7234;DHT22;3658;47.992;10.158;2023-04-24T00:51:47;21.50;42.70
7234;DHT22;3658;47.992;10.158;2023-04-24T00:54:15;21.40;42.60
7234;DHT22;3658;47.992;10.158;2023-04-24T00:56:42;21.40;42.60
7234;DHT22;3658;47.992;10.158;2023-04-24T00:59:12;21.50;42.70
7234;DHT22;3658;47.992;10.158;2023-04-24T01:01:40;21.40;42.60
7234;DHT22;3658;47.992;10.158;2023-04-24T01:04:07;21.40;42.60
7234;DHT22;3658;47.992;10.158;2023-04-24T01:06:38;21.40;43.20
7234;DHT22;3658;47.992;10.158;2023-04-24T01:09:06;21.40;42.50
7234;DHT22;3658;47.992;10.158;2023-04-24T01:11:34;21.40;42.50
7234;DHT22;3658;47.992;10.158;2023-04-24T01:14:01;21.40;42.50
7234;DHT22;3658;47.992;10.158;2023-04-24T01:16:30;21.40;42.50
7234;DHT22;3658;47.992;10.158;2023-04-24T01:18:57;21.40;42.60
7234;DHT22;3658;47.992;10.158;2023-04-24T01:21:26;21.40;42.60
7234;DHT22;3658;47.992;10.158;2023-04-24T01:23:56;21.40;42.60
7234;DHT22;3658;47.992;10.158;2023-04-24T01:26:23;21.40;42.60
7234;DHT22;3658;47.992;10.158;2023-04-24T01:28:51;21.40;42.50
7234;DHT22;3658;47.992;10.158;2023-04-24T01:31:18;21.40;42.50
7234;DHT22;3658;47.992;10.158;2023-04-24T01:33:46;21.40;42.50
7234;DHT22;3658;47.992;10.158;2023-04-24T01:36:14;21.40;42.40
7234;DHT22;3658;47.992;10.158;2023-04-24T01:38:43;21.40;42.40
7234;DHT22;3658;47.992;10.158;2023-04-24T01:41:11;21.40;42.40
7234;DHT22;3658;47.992;10.158;2023-04-24T01:43:38;21.40;42.40
7234;DHT22;3658;47.992;10.158;2023-04-24T01:46:06;21.40;42.40
7234;DHT22;3658;47.992;10.158;2023-04-24T01:48:33;21.40;42.40
7234;DHT22;3658;47.992;10.158;2023-04-24T01:51:00;21.40;42.40
7234;DHT22;3658;47.992;10.158;2023-04-24T01:53:27;21.40;42.40
7234;DHT22;3658;47.992;10.158;2023-04-24T01:55:54;21.40;42.40
7234;DHT22;3658;47.992;10.158;2023-04-24T01:58:22;21.40;42.40
7234;DHT22;3658;47.992;10.158;2023-04-24T02:00:50;21.40;42.40
7234;DHT22;3658;47.992;10.158;2023-04-24T02:03:17;21.40;42.40
7234;DHT22;3658;47.992;10.158;2023-04-24T02:05:44;21.40;42.40
7234;DHT22;3658;47.992;10.158;2023-04-24T02:08:11;21.40;42.40
7234;DHT22;3658;47.992;10.158;2023-04-24T02:10:38;21.40;42.40
7234;DHT22;3658;47.992;10.158;2023-04-24T02:13:05;21.40;42.40
7234;DHT22;3658;47.992;10.158;2023-04-24T02:15:33;21.40;42.40
7234;DHT22;3658;47.992;10.158;2023-04-24T02:18:01;21.40;42.30
7234;DHT22;3658;47.992;10.158;2023-04-24T02:20:28;21.40;42.40
7234;DHT22;3658;47.992;10.158;2023-04-24T02:22:55;21.40;42.30
7234;DHT22;3658;47.992;10.158;2023-04-24T02:25:22;21.40;42.30
7234;DHT22;3658;47.992;10.158;2023-04-24T02:27:49;21.40;42.30
7234;DHT22;3658;47.992;10.158;2023-04-24T02:30:16;21.40;42.30
7234;DHT22;3658;47.992;10.158;2023-04-24T02:32:44;21.40;42.30
7234;DHT22;3658;47.992;10.158;2023-04-24T02:35:11;21.40;42.30
7234;DHT22;3658;47.992;10.158;2023-04-24T02:37:38;21.40;42.20
7234;DHT22;3658;47.992;10.158;2023-04-24T02:40:06;21.40;42.20
7234;DHT22;3658;47.992;10.158;2023-04-24T02:42:33;21.40;42.20
7234;DHT22;3658;47.992;10.158;2023-04-24T02:45:00;21.40;42.20
7234;DHT22;3658;47.992;10.158;2023-04-24T02:47:27;21.40;42.20
7234;DHT22;3658;47.992;10.158;2023-04-24T02:49:56;21.40;42.30
7234;DHT22;3658;47.992;10.158;2023-04-24T02:52:23;21.40;42.30
7234;DHT22;3658;47.992;10.158;2023-04-24T02:54:50;21.40;42.30
7234;DHT22;3658;47.992;10.158;2023-04-24T02:57:17;21.40;42.20
7234;DHT22;3658;47.992;10.158;2023-04-24T02:59:43;21.40;42.30
7234;DHT22;3658;47.992;10.158;2023-04-24T03:02:10;21.30;42.20
7234;DHT22;3658;47.992;10.158;2023-04-24T03:04:37;21.40;42.20
7234;DHT22;3658;47.992;10.158;2023-04-24T03:07:06;21.30;42.20
7234;DHT22;3658;47.992;10.158;2023-04-24T03:09:33;21.30;42.80
7234;DHT22;3658;47.992;10.158;2023-04-24T03:12:00;21.40;42.20
7234;DHT22;3658;47.992;10.158;2023-04-24T03:14:27;21.30;42.10
7234;DHT22;3658;47.992;10.158;2023-04-24T03:16:56;21.30;42.00
7234;DHT22;3658;47.992;10.158;2023-04-24T03:19:23;21.40;42.20
7234;DHT22;3658;47.992;10.158;2023-04-24T03:21:50;21.30;42.10
7234;DHT22;3658;47.992;10.158;2023-04-24T03:24:18;21.30;42.00
7234;DHT22;3658;47.992;10.158;2023-04-24T03:26:46;21.30;42.10
7234;DHT22;3658;47.992;10.158;2023-04-24T03:29:13;21.30;42.00
7234;DHT22;3658;47.992;10.158;2023-04-24T03:31:40;21.30;42.10
7234;DHT22;3658;47.992;10.158;2023-04-24T03:34:07;21.30;42.10
7234;DHT22;3658;47.992;10.158;2023-04-24T03:36:34;21.30;42.20
7234;DHT22;3658;47.992;10.158;2023-04-24T03:39:01;21.30;42.10
7234;DHT22;3658;47.992;10.158;2023-04-24T03:41:29;21.30;42.10
7234;DHT22;3658;47.992;10.158;2023-04-24T03:43:56;21.30;42.10
7234;DHT22;3658;47.992;10.158;2023-04-24T03:46:23;21.30;42.10
7234;DHT22;3658;47.992;10.158;2023-04-24T03:48:50;21.30;42.10
7234;DHT22;3658;47.992;10.158;2023-04-24T03:51:17;21.30;42.10
7234;DHT22;3658;47.992;10.158;2023-04-24T03:53:44;21.30;42.00
7234;DHT22;3658;47.992;10.158;2023-04-24T03:56:11;21.30;42.10
7234;DHT22;3658;47.992;10.158;2023-04-24T03:58:39;21.30;42.00
7234;DHT22;3658;47.992;10.158;2023-04-24T04:01:06;21.30;42.00
7234;DHT22;3658;47.992;10.158;2023-04-24T04:03:33;21.30;42.00
7234;DHT22;3658;47.992;10.158;2023-04-24T04:06:00;21.30;42.00
7234;DHT22;3658;47.992;10.158;2023-04-24T04:08:27;21.30;41.90
7234;DHT22;3658;47.992;10.158;2023-04-24T04:10:54;21.30;41.90
7234;DHT22;3658;47.992;10.158;2023-04-24T04:13:21;21.30;41.90
7234;DHT22;3658;47.992;10.158;2023-04-24T04:15:49;21.30;42.00
7234;DHT22;3658;47.992;10.158;2023-04-24T04:18:16;21.30;42.00
7234;DHT22;3658;47.992;10.158;2023-04-24T04:20:43;21.30;42.00
7234;DHT22;3658;47.992;10.158;2023-04-24T04:23:10;21.30;42.00
7234;DHT22;3658;47.992;10.158;2023-04-24T04:25:37;21.30;42.10
7234;DHT22;3658;47.992;10.158;2023-04-24T04:28:04;21.30;42.10
7234;DHT22;3658;47.992;10.158;2023-04-24T04:30:31;21.30;42.10
7234;DHT22;3658;47.992;10.158;2023-04-24T04:32:59;21.30;42.00
7234;DHT22;3658;47.992;10.158;2023-04-24T04:35:26;21.30;42.00
7234;DHT22;3658;47.992;10.158;2023-04-24T04:37:53;21.20;41.90
7234;DHT22;3658;47.992;10.158;2023-04-24T04:40:21;21.30;42.00
7234;DHT22;3658;47.992;10.158;2023-04-24T04:42:48;21.30;41.90
7234;DHT22;3658;47.992;10.158;2023-04-24T04:45:18;21.30;41.90
7234;DHT22;3658;47.992;10.158;2023-04-24T04:47:46;21.30;41.90
7234;DHT22;3658;47.992;10.158;2023-04-24T04:50:14;21.30;42.60
7234;DHT22;3658;47.992;10.158;2023-04-24T04:52:42;21.30;41.90
7234;DHT22;3658;47.992;10.158;2023-04-24T04:55:09;21.30;41.90
7234;DHT22;3658;47.992;10.158;2023-04-24T04:57:39;21.30;41.90
7234;DHT22;3658;47.992;10.158;2023-04-24T05:00:07;21.30;41.90
7234;DHT22;3658;47.992;10.158;2023-04-24T05:02:36;21.30;41.90
7234;DHT22;3658;47.992;10.158;2023-04-24T05:05:03;21.20;41.90
7234;DHT22;3658;47.992;10.158;2023-04-24T05:07:32;21.20;41.90
7234;DHT22;3658;47.992;10.158;2023-04-24T05:09:59;21.20;41.90
7234;DHT22;3658;47.992;10.158;2023-04-24T05:12:26;21.20;41.90
7234;DHT22;3658;47.992;10.158;2023-04-24T05:14:53;21.30;41.90
7234;DHT22;3658;47.992;10.158;2023-04-24T05:17:20;21.20;41.90
7234;DHT22;3658;47.992;10.158;2023-04-24T05:19:47;21.20;41.90
7234;DHT22;3658;47.992;10.158;2023-04-24T05:22:14;21.20;41.90
7234;DHT22;3658;47.992;10.158;2023-04-24T05:24:44;21.20;41.90
7234;DHT22;3658;47.992;10.158;2023-04-24T05:27:11;21.20;41.90
7234;DHT22;3658;47.992;10.158;2023-04-24T05:29:38;21.20;42.20
7234;DHT22;3658;47.992;10.158;2023-04-24T05:32:05;21.20;42.20
7234;DHT22;3658;47.992;10.158;2023-04-24T05:34:32;21.20;42.40
7234;DHT22;3658;47.992;10.158;2023-04-24T05:37:00;21.20;42.70
7234;DHT22;3658;47.992;10.158;2023-04-24T05:39:27;21.20;42.90
7234;DHT22;3658;47.992;10.158;2023-04-24T05:41:55;21.30;42.90
7234;DHT22;3658;47.992;10.158;2023-04-24T05:44:24;21.20;42.80
7234;DHT22;3658;47.992;10.158;2023-04-24T05:46:51;21.20;42.70
7234;DHT22;3658;47.992;10.158;2023-04-24T05:49:18;21.30;42.80
7234;DHT22;3658;47.992;10.158;2023-04-24T05:51:45;21.20;42.70
7234;DHT22;3658;47.992;10.158;2023-04-24T05:54:12;21.20;42.70
7234;DHT22;3658;47.992;10.158;2023-04-24T05:56:39;21.20;42.80
7234;DHT22;3658;47.992;10.158;2023-04-24T05:59:08;21.20;42.80
7234;DHT22;3658;47.992;10.158;2023-04-24T06:01:35;21.20;42.90
7234;DHT22;3658;47.992;10.158;2023-04-24T06:04:02;21.20;42.90
7234;DHT22;3658;47.992;10.158;2023-04-24T06:06:29;21.20;42.90
7234;DHT22;3658;47.992;10.158;2023-04-24T06:08:58;21.20;42.90
7234;DHT22;3658;47.992;10.158;2023-04-24T06:11:25;21.20;43.30
7234;DHT22;3658;47.992;10.158;2023-04-24T06:13:52;21.30;44.10
7234;DHT22;3658;47.992;10.158;2023-04-24T06:16:20;21.30;44.20
7234;DHT22;3658;47.992;10.158;2023-04-24T06:18:47;21.30;44.20
7234;DHT22;3658;47.992;10.158;2023-04-24T06:21:17;21.30;44.00
7234;DHT22;3658;47.992;10.158;2023-04-24T06:23:44;21.30;43.90
7234;DHT22;3658;47.992;10.158;2023-04-24T06:26:12;21.20;43.70
7234;DHT22;3658;47.992;10.158;2023-04-24T06:28:39;21.20;43.70
7234;DHT22;3658;47.992;10.158;2023-04-24T06:31:06;21.30;43.70
7234;DHT22;3658;47.992;10.158;2023-04-24T06:33:34;21.30;43.70
7234;DHT22;3658;47.992;10.158;2023-04-24T06:36:02;21.20;43.50
7234;DHT22;3658;47.992;10.158;2023-04-24T06:38:29;21.30;43.50
7234;DHT22;3658;47.992;10.158;2023-04-24T06:40:56;21.20;43.50
7234;DHT22;3658;47.992;10.158;2023-04-24T06:43:23;21.20;43.40
7234;DHT22;3658;47.992;10.158;2023-04-24T06:45:50;21.20;43.30
7234;DHT22;3658;47.992;10.158;2023-04-24T06:48:17;21.20;43.30
7234;DHT22;3658;47.992;10.158;2023-04-24T06:50:45;21.20;43.30
7234;DHT22;3658;47.992;10.158;2023-04-24T06:53:12;21.20;43.30
7234;DHT22;3658;47.992;10.158;2023-04-24T06:55:40;21.20;43.30
7234;DHT22;3658;47.992;10.158;2023-04-24T06:58:10;21.20;43.30
7234;DHT22;3658;47.992;10.158;2023-04-24T07:00:37;21.20;43.30
7234;DHT22;3658;47.992;10.158;2023-04-24T07:03:04;21.20;43.20
7234;DHT22;3658;47.992;10.158;2023-04-24T07:05:31;21.20;43.20
7234;DHT22;3658;47.992;10.158;2023-04-24T07:08:02;21.20;43.20
7234;DHT22;3658;47.992;10.158;2023-04-24T07:10:29;21.20;43.20
7234;DHT22;3658;47.992;10.158;2023-04-24T07:12:56;21.20;43.20
7234;DHT22;3658;47.992;10.158;2023-04-24T07:15:23;21.20;43.10
7234;DHT22;3658;47.992;10.158;2023-04-24T07:17:50;21.20;43.20
7234;DHT22;3658;47.992;10.158;2023-04-24T07:20:17;21.20;43.10
7234;DHT22;3658;47.992;10.158;2023-04-24T07:22:44;21.20;43.10
7234;DHT22;3658;47.992;10.158;2023-04-24T07:25:12;21.20;43.10
7234;DHT22;3658;47.992;10.158;2023-04-24T07:27:39;21.20;43.10
7234;DHT22;3658;47.992;10.158;2023-04-24T07:30:07;21.20;43.10
7234;DHT22;3658;47.992;10.158;2023-04-24T07:32:34;21.20;43.10
7234;DHT22;3658;47.992;10.158;2023-04-24T07:35:01;21.20;43.10
7234;DHT22;3658;47.992;10.158;2023-04-24T07:37:28;21.20;43.00
7234;DHT22;3658;47.992;10.158;2023-04-24T07:39:55;21.20;43.00
7234;DHT22;3658;47.992;10.158;2023-04-24T07:42:24;21.20;43.00
7234;DHT22;3658;47.992;10.158;2023-04-24T07:44:51;21.20;42.90
7234;DHT22;3658;47.992;10.158;2023-04-24T07:47:18;21.20;42.90
7234;DHT22;3658;47.992;10.158;2023-04-24T07:49:45;21.20;42.90
7234;DHT22;3658;47.992;10.158;2023-04-24T07:52:12;21.20;42.80
7234;DHT22;3658;47.992;10.158;2023-04-24T07:54:39;21.20;42.80
7234;DHT22;3658;47.992;10.158;2023-04-24T07:57:06;21.20;42.80
7234;DHT22;3658;47.992;10.158;2023-04-24T07:59:35;21.20;42.80
7234;DHT22;3658;47.992;10.158;2023-04-24T08:02:02;21.20;42.70
7234;DHT22;3658;47.992;10.158;2023-04-24T08:04:29;21.20;42.80
7234;DHT22;3658;47.992;10.158;2023-04-24T08:06:55;21.20;42.90
7234;DHT22;3658;47.992;10.158;2023-04-24T08:09:22;21.20;42.80
7234;DHT22;3658;47.992;10.158;2023-04-24T08:11:50;21.20;42.80
7234;DHT22;3658;47.992;10.158;2023-04-24T08:14:16;21.20;42.80
7234;DHT22;3658;47.992;10.158;2023-04-24T08:16:45;21.20;42.80
7234;DHT22;3658;47.992;10.158;2023-04-24T08:19:12;21.20;42.80
7234;DHT22;3658;47.992;10.158;2023-04-24T08:21:39;21.20;42.70
7234;DHT22;3658;47.992;10.158;2023-04-24T08:24:06;21.20;42.70
7234;DHT22;3658;47.992;10.158;2023-04-24T08:26:33;21.20;42.70
7234;DHT22;3658;47.992;10.158;2023-04-24T08:29:00;21.20;42.70
7234;DHT22;3658;47.992;10.158;2023-04-24T08:31:27;21.20;42.60
7234;DHT22;3658;47.992;10.158;2023-04-24T08:33:55;21.20;42.60
7234;DHT22;3658;47.992;10.158;2023-04-24T08:36:22;21.20;42.60
7234;DHT22;3658;47.992;10.158;2023-04-24T08:38:49;21.20;42.60
7234;DHT22;3658;47.992;10.158;2023-04-24T08:41:18;21.20;42.50
7234;DHT22;3658;47.992;10.158;2023-04-24T08:43:46;21.20;42.50
7234;DHT22;3658;47.992;10.158;2023-04-24T08:46:13;21.20;42.50
7234;DHT22;3658;47.992;10.158;2023-04-24T08:48:42;21.20;42.50
7234;DHT22;3658;47.992;10.158;2023-04-24T08:51:11;21.20;42.50
7234;DHT22;3658;47.992;10.158;2023-04-24T08:53:39;21.20;42.50
7234;DHT22;3658;47.992;10.158;2023-04-24T08:56:06;21.20;42.50
7234;DHT22;3658;47.992;10.158;2023-04-24T08:58:34;21.20;42.50
7234;DHT22;3658;47.992;10.158;2023-04-24T09:01:02;21.20;42.60
7234;DHT22;3658;47.992;10.158;2023-04-24T09:03:29;21.20;42.60
7234;DHT22;3658;47.992;10.158;2023-04-24T09:05:58;21.20;42.60
7234;DHT22;3658;47.992;10.158;2023-04-24T09:08:28;21.20;42.60
7234;DHT22;3658;47.992;10.158;2023-04-24T09:10:56;21.20;42.60
7234;DHT22;3658;47.992;10.158;2023-04-24T09:13:27;21.20;42.50
7234;DHT22;3658;47.992;10.158;2023-04-24T09:15:55;21.10;42.40
7234;DHT22;3658;47.992;10.158;2023-04-24T09:18:23;21.10;42.40
7234;DHT22;3658;47.992;10.158;2023-04-24T09:21:01;21.10;42.40
7234;DHT22;3658;47.992;10.158;2023-04-24T09:23:31;21.10;42.40
7234;DHT22;3658;47.992;10.158;2023-04-24T09:25:59;21.10;42.40
7234;DHT22;3658;47.992;10.158;2023-04-24T09:28:32;21.10;42.40
7234;DHT22;3658;47.992;10.158;2023-04-24T09:31:04;21.10;42.40
7234;DHT22;3658;47.992;10.158;2023-04-24T09:33:31;21.10;42.40
7234;DHT22;3658;47.992;10.158;2023-04-24T09:35:58;21.10;42.40
7234;DHT22;3658;47.992;10.158;2023-04-24T09:38:33;21.10;42.40
7234;DHT22;3658;47.992;10.158;2023-04-24T09:41:01;21.10;42.40
7234;DHT22;3658;47.992;10.158;2023-04-24T09:43:29;21.10;42.40
7234;DHT22;3658;47.992;10.158;2023-04-24T09:45:57;21.10;42.40
7234;DHT22;3658;47.992;10.158;2023-04-24T09:48:31;21.10;42.40
7234;DHT22;3658;47.992;10.158;2023-04-24T09:50:58;21.10;42.40
7234;DHT22;3658;47.992;10.158;2023-04-24T09:53:27;21.10;42.40
7234;DHT22;3658;47.992;10.158;2023-04-24T09:55:55;21.10;42.40
7234;DHT22;3658;47.992;10.158;2023-04-24T09:58:26;21.10;42.40
7234;DHT22;3658;47.992;10.158;2023-04-24T10:00:54;21.10;42.30
7234;DHT22;3658;47.992;10.158;2023-04-24T10:03:24;21.10;42.30
7234;DHT22;3658;47.992;10.158;2023-04-24T10:05:52;21.10;42.40
7234;DHT22;3658;47.992;10.158;2023-04-24T10:08:19;21.10;42.30
7234;DHT22;3658;47.992;10.158;2023-04-24T10:10:47;21.10;42.30
7234;DHT22;3658;47.992;10.158;2023-04-24T10:13:16;21.10;42.30
7234;DHT22;3658;47.992;10.158;2023-04-24T10:15:43;21.10;42.40
7234;DHT22;3658;47.992;10.158;2023-04-24T10:18:11;21.10;42.40
7234;DHT22;3658;47.992;10.158;2023-04-24T10:20:39;21.10;42.30
7234;DHT22;3658;47.992;10.158;2023-04-24T10:23:07;21.10;42.40
7234;DHT22;3658;47.992;10.158;2023-04-24T10:25:35;21.10;42.40
7234;DHT22;3658;47.992;10.158;2023-04-24T10:28:03;21.10;42.40
7234;DHT22;3658;47.992;10.158;2023-04-24T10:30:33;21.10;42.40
7234;DHT22;3658;47.992;10.158;2023-04-24T10:33:02;21.10;42.40
7234;DHT22;3658;47.992;10.158;2023-04-24T10:35:31;21.10;42.40
7234;DHT22;3658;47.992;10.158;2023-04-24T10:38:02;21.10;42.40
7234;DHT22;3658;47.992;10.158;2023-04-24T10:40:31;21.10;42.40
7234;DHT22;3658;47.992;10.158;2023-04-24T10:42:59;21.10;42.40
7234;DHT22;3658;47.992;10.158;2023-04-24T10:45:28;21.10;42.30
7234;DHT22;3658;47.992;10.158;2023-04-24T10:48:02;21.10;42.40
7234;DHT22;3658;47.992;10.158;2023-04-24T10:50:34;21.10;42.40
7234;DHT22;3658;47.992;10.158;2023-04-24T10:53:14;21.10;43.00
7234;DHT22;3658;47.992;10.158;2023-04-24T10:55:44;21.10;42.40
7234;DHT22;3658;47.992;10.158;2023-04-24T10:58:11;21.10;42.40
7234;DHT22;3658;47.992;10.158;2023-04-24T11:00:40;21.10;42.40
7234;DHT22;3658;47.992;10.158;2023-04-24T11:03:24;21.10;42.40
7234;DHT22;3658;47.992;10.158;2023-04-24T11:05:56;21.10;42.40
7234;DHT22;3658;47.992;10.158;2023-04-24T11:08:26;21.10;42.40
7234;DHT22;3658;47.992;10.158;2023-04-24T11:11:02;21.10;42.40
7234;DHT22;3658;47.992;10.158;2023-04-24T11:14:01;21.10;42.40
7234;DHT22;3658;47.992;10.158;2023-04-24T11:16:30;21.10;42.40
7234;DHT22;3658;47.992;10.158;2023-04-24T11:19:05;21.10;42.40
7234;DHT22;3658;47.992;10.158;2023-04-24T11:21:39;21.10;42.40
7234;DHT22;3658;47.992;10.158;2023-04-24T11:24:26;21.10;42.40
7234;DHT22;3658;47.992;10.158;2023-04-24T11:26:54;21.10;42.40
7234;DHT22;3658;47.992;10.158;2023-04-24T11:29:22;21.10;42.40
7234;DHT22;3658;47.992;10.158;2023-04-24T11:31:49;21.10;42.40
7234;DHT22;3658;47.992;10.158;2023-04-24T11:34:18;21.10;42.40
7234;DHT22;3658;47.992;10.158;2023-04-24T11:36:46;21.10;42.40
7234;DHT22;3658;47.992;10.158;2023-04-24T11:39:13;21.10;42.40
7234;DHT22;3658;47.992;10.158;2023-04-24T11:41:41;21.10;42.40
7234;DHT22;3658;47.992;10.158;2023-04-24T11:44:09;21.10;42.50
7234;DHT22;3658;47.992;10.158;2023-04-24T11:46:36;21.10;42.40
7234;DHT22;3658;47.992;10.158;2023-04-24T11:49:05;21.10;42.40
7234;DHT22;3658;47.992;10.158;2023-04-24T11:51:34;21.10;42.40
7234;DHT22;3658;47.992;10.158;2023-04-24T11:54:01;21.10;42.40
7234;DHT22;3658;47.992;10.158;2023-04-24T11:56:28;21.10;42.40
7234;DHT22;3658;47.992;10.158;2023-04-24T11:58:55;21.10;42.40
7234;DHT22;3658;47.992;10.158;2023-04-24T12:01:22;21.00;42.30
7234;DHT22;3658;47.992;10.158;2023-04-24T12:03:49;21.10;42.40
7234;DHT22;3658;47.992;10.158;2023-04-24T12:06:17;21.00;42.30
7234;DHT22;3658;47.992;10.158;2023-04-24T12:08:52;21.10;42.40
7234;DHT22;3658;47.992;10.158;2023-04-24T12:11:20;21.00;42.30
7234;DHT22;3658;47.992;10.158;2023-04-24T12:13:47;21.00;42.30
7234;DHT22;3658;47.992;10.158;2023-04-24T12:16:14;21.00;42.40
7234;DHT22;3658;47.992;10.158;2023-04-24T12:18:42;21.10;42.40
7234;DHT22;3658;47.992;10.158;2023-04-24T12:21:18;21.10;42.40
7234;DHT22;3658;47.992;10.158;2023-04-24T12:23:45;21.00;42.20
7234;DHT22;3658;47.992;10.158;2023-04-24T12:26:16;21.10;42.30
7234;DHT22;3658;47.992;10.158;2023-04-24T12:28:46;21.00;42.20
7234;DHT22;3658;47.992;10.158;2023-04-24T12:31:14;21.00;42.20
7234;DHT22;3658;47.992;10.158;2023-04-24T12:33:41;21.00;42.30
7234;DHT22;3658;47.992;10.158;2023-04-24T12:36:10;21.10;42.30
7234;DHT22;3658;47.992;10.158;2023-04-24T12:38:38;21.00;42.30
7234;DHT22;3658;47.992;10.158;2023-04-24T12:41:08;21.00;42.30
7234;DHT22;3658;47.992;10.158;2023-04-24T12:43:37;21.00;42.30
7234;DHT22;3658;47.992;10.158;2023-04-24T12:46:04;21.00;42.30
7234;DHT22;3658;47.992;10.158;2023-04-24T12:48:31;21.00;42.30
7234;DHT22;3658;47.992;10.158;2023-04-24T12:50:59;21.00;42.30
7234;DHT22;3658;47.992;10.158;2023-04-24T12:53:27;21.00;42.30
7234;DHT22;3658;47.992;10.158;2023-04-24T12:55:56;21.00;42.30
7234;DHT22;3658;47.992;10.158;2023-04-24T12:58:24;21.00;42.30
7234;DHT22;3658;47.992;10.158;2023-04-24T13:00:52;21.00;42.30
7234;DHT22;3658;47.992;10.158;2023-04-24T13:03:19;21.00;42.20
7234;DHT22;3658;47.992;10.158;2023-04-24T13:05:48;21.00;42.30
7234;DHT22;3658;47.992;10.158;2023-04-24T13:08:15;21.00;42.20
7234;DHT22;3658;47.992;10.158;2023-04-24T13:10:42;21.00;42.20
7234;DHT22;3658;47.992;10.158;2023-04-24T13:13:09;21.00;42.20
7234;DHT22;3658;47.992;10.158;2023-04-24T13:15:36;21.00;42.20
7234;DHT22;3658;47.992;10.158;2023-04-24T13:18:04;21.00;42.30
7234;DHT22;3658;47.992;10.158;2023-04-24T13:20:31;21.00;42.30
7234;DHT22;3658;47.992;10.158;2023-04-24T13:23:01;21.00;42.20
7234;DHT22;3658;47.992;10.158;2023-04-24T13:25:27;21.00;42.20
7234;DHT22;3658;47.992;10.158;2023-04-24T13:27:55;21.00;42.20
7234;DHT22;3658;47.992;10.158;2023-04-24T13:30:22;21.00;42.20
7234;DHT22;3658;47.992;10.158;2023-04-24T13:32:49;21.00;42.20
7234;DHT22;3658;47.992;10.158;2023-04-24T13:35:18;21.00;42.20
7234;DHT22;3658;47.992;10.158;2023-04-24T13:37:45;21.00;42.20
7234;DHT22;3658;47.992;10.158;2023-04-24T13:40:12;21.00;42.20
7234;DHT22;3658;47.992;10.158;2023-04-24T13:42:39;21.00;42.20
7234;DHT22;3658;47.992;10.158;2023-04-24T13:45:07;21.00;42.20
7234;DHT22;3658;47.992;10.158;2023-04-24T13:47:34;21.00;42.20
7234;DHT22;3658;47.992;10.158;2023-04-24T13:50:01;21.00;42.20
7234;DHT22;3658;47.992;10.158;2023-04-24T13:52:30;21.00;42.20
7234;DHT22;3658;47.992;10.158;2023-04-24T13:54:57;21.00;42.20
7234;DHT22;3658;47.992;10.158;2023-04-24T13:57:24;21.00;42.20
7234;DHT22;3658;47.992;10.158;2023-04-24T13:59:51;21.00;42.20
7234;DHT22;3658;47.992;10.158;2023-04-24T14:02:17;20.90;42.10
7234;DHT22;3658;47.992;10.158;2023-04-24T14:04:44;20.90;42.10
7234;DHT22;3658;47.992;10.158;2023-04-24T14:07:13;20.90;42.10
7234;DHT22;3658;47.992;10.158;2023-04-24T14:09:43;20.90;42.10
7234;DHT22;3658;47.992;10.158;2023-04-24T14:12:10;20.90;42.10
7234;DHT22;3658;47.992;10.158;2023-04-24T14:14:38;20.90;42.10
7234;DHT22;3658;47.992;10.158;2023-04-24T14:17:05;20.90;42.10
7234;DHT22;3658;47.992;10.158;2023-04-24T14:19:32;20.90;42.10
7234;DHT22;3658;47.992;10.158;2023-04-24T14:22:00;20.90;42.10
7234;DHT22;3658;47.992;10.158;2023-04-24T14:24:27;20.90;42.10
7234;DHT22;3658;47.992;10.158;2023-04-24T14:26:55;20.90;42.10
7234;DHT22;3658;47.992;10.158;2023-04-24T14:29:22;20.90;42.10
7234;DHT22;3658;47.992;10.158;2023-04-24T14:31:51;20.90;42.00
7234;DHT22;3658;47.992;10.158;2023-04-24T14:34:18;20.90;42.00
7234;DHT22;3658;47.992;10.158;2023-04-24T14:36:45;20.90;42.00
7234;DHT22;3658;47.992;10.158;2023-04-24T14:39:12;20.90;42.00
7234;DHT22;3658;47.992;10.158;2023-04-24T14:41:39;20.90;42.00
7234;DHT22;3658;47.992;10.158;2023-04-24T14:44:07;20.90;42.10
7234;DHT22;3658;47.992;10.158;2023-04-24T14:46:34;20.90;42.00
7234;DHT22;3658;47.992;10.158;2023-04-24T14:49:02;20.90;42.00
7234;DHT22;3658;47.992;10.158;2023-04-24T14:51:28;20.90;42.00
7234;DHT22;3658;47.992;10.158;2023-04-24T14:53:56;20.90;42.10
7234;DHT22;3658;47.992;10.158;2023-04-24T14:56:23;20.90;42.00
7234;DHT22;3658;47.992;10.158;2023-04-24T14:58:50;20.90;42.00
7234;DHT22;3658;47.992;10.158;2023-04-24T15:01:19;20.90;42.00
7234;DHT22;3658;47.992;10.158;2023-04-24T15:03:46;20.90;42.00
7234;DHT22;3658;47.992;10.158;2023-04-24T15:06:13;20.90;42.00
7234;DHT22;3658;47.992;10.158;2023-04-24T15:08:40;20.90;42.00
7234;DHT22;3658;47.992;10.158;2023-04-24T15:11:07;20.90;42.00
7234;DHT22;3658;47.992;10.158;2023-04-24T15:13:35;20.90;42.00
7234;DHT22;3658;47.992;10.158;2023-04-24T15:16:01;20.90;42.00
7234;DHT22;3658;47.992;10.158;2023-04-24T15:18:30;20.90;42.00
7234;DHT22;3658;47.992;10.158;2023-04-24T15:20:57;20.90;42.00
7234;DHT22;3658;47.992;10.158;2023-04-24T15:23:24;20.90;42.00
7234;DHT22;3658;47.992;10.158;2023-04-24T15:25:51;20.90;42.00
7234;DHT22;3658;47.992;10.158;2023-04-24T15:28:18;20.90;41.90
7234;DHT22;3658;47.992;10.158;2023-04-24T15:30:47;20.90;42.00
7234;DHT22;3658;47.992;10.158;2023-04-24T15:33:14;20.90;42.00
7234;DHT22;3658;47.992;10.158;2023-04-24T15:35:42;20.90;42.00
7234;DHT22;3658;47.992;10.158;2023-04-24T15:38:09;20.90;42.60
7234;DHT22;3658;47.992;10.158;2023-04-24T15:40:37;20.90;42.00
7234;DHT22;3658;47.992;10.158;2023-04-24T15:43:04;20.90;42.00
7234;DHT22;3658;47.992;10.158;2023-04-24T15:45:33;20.90;42.00
7234;DHT22;3658;47.992;10.158;2023-04-24T15:48:00;20.90;42.00